Time;durP1;ratioP1;P1;durP2;ratioP2;P2;SDS_P1;SDS_P2;PMS_P1;PMS_P2;Temp;Humidity;BMP_temperature;BMP_pressure;BME280_temperature;BME280_humidity;BME280_pressure;Samples;Min_cycle;Max_cycle;Signal;HPM_P1;HPM_P2
2021/12/03 00:00:30;;;;;;;1.67;1.07;;;-1.90;99.90;;;;;;5052373;28;20393;-76
2021/12/03 00:02:56;;;;;;;3.90;2.10;;;-2.00;99.90;;;;;;5052610;28;20102;-77
2021/12/03 00:05:23;;;;;;;4.27;2.00;;;-1.90;99.90;;;;;;5051933;28;20488;-76
2021/12/03 00:07:50;;;;;;;1.80;1.33;;;-1.90;99.90;;;;;;5052307;28;20045;-76
2021/12/03 00:10:22;;;;;;;1.87;1.77;;;-1.90;99.90;;;;;;5053034;28;20155;-79
2021/12/03 00:12:49;;;;;;;3.67;2.23;;;-1.90;99.90;;;;;;5053494;28;20045;-78
2021/12/03 00:15:17;;;;;;;7.17;1.73;;;-2.00;99.90;;;;;;5052063;28;20049;-77
2021/12/03 00:17:44;;;;;;;3.10;1.33;;;-2.00;99.90;;;;;;5052464;28;20048;-81
2021/12/03 00:20:14;;;;;;;6.43;1.73;;;-2.00;99.90;;;;;;5052903;28;20056;-77
2021/12/03 00:22:41;;;;;;;1.40;1.33;;;-1.90;99.90;;;;;;5052536;28;20048;-79
2021/12/03 00:25:08;;;;;;;1.73;1.63;;;-2.00;99.90;;;;;;5052235;28;20099;-77
2021/12/03 00:27:37;;;;;;;2.10;1.63;;;-1.90;99.90;;;;;;5051959;28;20048;-76
2021/12/03 00:30:07;;;;;;;1.57;1.47;;;-1.90;99.90;;;;;;5052929;28;20110;-76
2021/12/03 00:32:33;;;;;;;0.70;0.70;;;-1.90;99.90;;;;;;5052732;28;20049;-78
2021/12/03 00:35:00;;;;;;;1.77;1.77;;;-1.90;99.90;;;;;;5051663;28;20477;-76
2021/12/03 00:37:27;;;;;;;2.37;1.37;;;-1.90;99.90;;;;;;5051987;28;20041;-76
2021/12/03 00:39:54;;;;;;;1.13;1.13;;;-1.90;99.90;;;;;;5052314;28;20053;-79
2021/12/03 00:42:20;;;;;;;2.77;1.50;;;-1.90;99.90;;;;;;5051939;28;20075;-78
2021/12/03 00:44:52;;;;;;;1.37;1.27;;;-1.80;99.90;;;;;;5051437;28;20048;-78
2021/12/03 00:47:19;;;;;;;2.15;1.63;;;-1.80;99.90;;;;;;5051905;28;20558;-78
2021/12/03 00:49:46;;;;;;;6.30;3.10;;;-1.90;99.90;;;;;;5051592;28;20049;-78
2021/12/03 00:52:12;;;;;;;9.33;3.50;;;-1.80;99.90;;;;;;5052182;28;20103;-79
2021/12/03 00:54:39;;;;;;;0.90;0.90;;;-1.80;99.90;;;;;;5051882;28;20045;-78
2021/12/03 00:57:06;;;;;;;5.07;0.90;;;-1.80;99.90;;;;;;5052429;28;20297;-79
2021/12/03 00:59:33;;;;;;;2.90;1.50;;;-1.90;99.90;;;;;;5052483;28;20408;-77
2021/12/03 01:02:02;;;;;;;2.23;1.07;;;-1.80;99.90;;;;;;5051622;28;20041;-78
2021/12/03 01:04:28;;;;;;;1.90;1.40;;;-1.90;99.90;;;;;;5051260;28;20095;-78
2021/12/03 01:06:55;;;;;;;1.93;1.43;;;-1.90;99.90;;;;;;5052118;28;20045;-77
2021/12/03 01:09:22;;;;;;;1.30;1.20;;;-1.90;99.90;;;;;;5051764;28;20095;-77
2021/12/03 01:11:49;;;;;;;1.77;1.70;;;-1.90;99.90;;;;;;5052260;28;20493;-77
2021/12/03 01:14:16;;;;;;;0.70;0.70;;;-2.00;99.90;;;;;;5052687;28;22309;-76
2021/12/03 01:16:43;;;;;;;3.40;1.47;;;-2.00;99.90;;;;;;5055646;28;20045;-77
2021/12/03 01:19:11;;;;;;;6.83;3.10;;;-2.00;99.90;;;;;;5055325;28;20122;-75
2021/12/03 01:21:38;;;;;;;2.03;1.53;;;-2.10;99.90;;;;;;5055291;28;20049;-77
2021/12/03 01:24:06;;;;;;;4.70;2.80;;;-2.10;99.90;;;;;;5054563;28;20556;-76
2021/12/03 01:26:33;;;;;;;2.10;1.53;;;-2.10;99.90;;;;;;5055401;28;20088;-76
2021/12/03 01:29:00;;;;;;;6.40;2.17;;;-2.10;99.90;;;;;;5055755;28;20056;-77
2021/12/03 01:31:27;;;;;;;2.83;2.57;;;-2.10;99.90;;;;;;5055293;28;20107;-76
2021/12/03 01:33:54;;;;;;;2.70;2.03;;;-2.10;99.90;;;;;;5055572;28;20052;-78
2021/12/03 01:36:23;;;;;;;4.10;1.50;;;-2.10;99.90;;;;;;5054894;28;20103;-76
2021/12/03 01:38:50;;;;;;;6.97;1.60;;;-2.20;99.90;;;;;;5062801;28;20048;-75
2021/12/03 01:41:16;;;;;;;4.53;1.93;;;-2.20;99.90;;;;;;5064738;28;20095;-75
2021/12/03 01:43:44;;;;;;;1.57;1.47;;;-2.20;99.90;;;;;;5063303;28;20436;-74
2021/12/03 01:46:12;;;;;;;2.83;2.37;;;-2.20;99.90;;;;;;5062647;28;20068;-75
2021/12/03 01:48:40;;;;;;;2.10;1.43;;;-2.20;99.90;;;;;;5061893;28;20128;-74
2021/12/03 01:51:07;;;;;;;1.33;1.33;;;-2.20;99.90;;;;;;5061240;28;20076;-77
2021/12/03 01:53:38;;;;;;;1.60;1.43;;;-2.10;99.90;;;;;;5059043;28;20091;-76
2021/12/03 01:56:08;;;;;;;2.03;1.52;;;-2.10;99.90;;;;;;5060415;28;20049;-79
2021/12/03 01:58:35;;;;;;;1.50;1.40;;;-2.10;99.90;;;;;;5060569;28;20095;-77
2021/12/03 02:01:04;;;;;;;2.20;1.53;;;-2.10;99.90;;;;;;5061091;28;20049;-77
2021/12/03 02:03:35;;;;;;;1.53;1.37;;;-2.10;99.90;;;;;;5054975;28;20103;-75
2021/12/03 02:06:03;;;;;;;1.10;1.03;;;-2.10;99.90;;;;;;5054546;28;20052;-76
2021/12/03 02:08:30;;;;;;;2.57;1.77;;;-2.10;99.90;;;;;;5054798;28;20056;-76
2021/12/03 02:10:59;;;;;;;1.00;1.00;;;-2.10;99.90;;;;;;5054869;28;20118;-76
2021/12/03 02:13:25;;;;;;;1.80;1.33;;;-2.00;99.90;;;;;;5054705;28;20049;-77
2021/12/03 02:15:52;;;;;;;1.40;1.30;;;-2.00;99.90;;;;;;5053829;28;20049;-76
2021/12/03 02:18:19;;;;;;;1.90;1.80;;;-2.00;99.90;;;;;;5054644;28;20451;-77
2021/12/03 02:20:48;;;;;;;5.43;1.47;;;-2.00;99.90;;;;;;5054233;28;20053;-76
2021/12/03 02:23:16;;;;;;;1.10;1.00;;;-2.00;99.90;;;;;;5053360;28;20049;-76
2021/12/03 02:25:44;;;;;;;1.60;1.30;;;-2.00;99.90;;;;;;5053420;28;20049;-75
2021/12/03 02:28:11;;;;;;;0.73;0.73;;;-2.00;99.90;;;;;;5053893;28;20069;-75
2021/12/03 02:30:39;;;;;;;2.67;1.23;;;-2.00;99.90;;;;;;5053801;28;20044;-77
2021/12/03 02:33:06;;;;;;;1.87;1.77;;;-2.00;99.90;;;;;;5054364;28;20051;-74
2021/12/03 02:35:32;;;;;;;1.30;1.30;;;-2.00;99.90;;;;;;5053505;28;20170;-75
2021/12/03 02:38:00;;;;;;;2.13;1.53;;;-2.00;99.90;;;;;;5054429;28;20103;-76
2021/12/03 02:40:27;;;;;;;3.20;1.33;;;-1.90;99.90;;;;;;5053914;28;20497;-76
2021/12/03 02:42:55;;;;;;;4.50;1.00;;;-2.00;99.90;;;;;;5053951;28;20064;-76
2021/12/03 02:45:22;;;;;;;1.73;1.63;;;-2.00;99.90;;;;;;5053816;28;20091;-76
2021/12/03 02:47:49;;;;;;;5.40;1.47;;;-1.90;99.90;;;;;;5054234;28;20044;-76
2021/12/03 02:50:17;;;;;;;2.63;0.70;;;-1.90;99.90;;;;;;5054335;28;20052;-77
2021/12/03 02:52:45;;;;;;;2.90;2.63;;;-1.90;99.90;;;;;;5054234;28;20041;-77
2021/12/03 02:55:14;;;;;;;2.40;2.30;;;-1.90;99.90;;;;;;5053383;28;20049;-78
2021/12/03 02:57:41;;;;;;;1.37;1.20;;;-1.90;99.90;;;;;;5053843;28;20049;-77
2021/12/03 03:00:11;;;;;;;2.03;1.93;;;-1.80;99.90;;;;;;5054504;28;20099;-77
2021/12/03 03:02:39;;;;;;;3.87;1.70;;;-1.80;99.90;;;;;;5054911;28;20052;-80
2021/12/03 03:05:07;;;;;;;1.73;1.63;;;-1.80;99.90;;;;;;5053576;28;20044;-73
2021/12/03 03:07:33;;;;;;;0.87;0.57;;;-1.80;99.90;;;;;;5053301;28;20103;-74
2021/12/03 03:10:01;;;;;;;2.57;1.30;;;-1.80;99.90;;;;;;5053127;28;20045;-79
2021/12/03 03:12:30;;;;;;;1.60;1.47;;;-1.70;99.90;;;;;;5056304;28;20132;-80
2021/12/03 03:15:00;;;;;;;2.37;1.80;;;-1.60;99.90;;;;;;5055044;28;20107;-79
2021/12/03 03:17:29;;;;;;;1.27;1.10;;;-1.50;99.90;;;;;;5053535;28;20049;-75
2021/12/03 03:19:59;;;;;;;2.67;1.33;;;-1.50;99.90;;;;;;5052999;28;20099;-74
2021/12/03 03:22:28;;;;;;;2.67;2.10;;;-1.40;99.90;;;;;;5053083;28;20055;-75
2021/12/03 03:24:59;;;;;;;1.67;1.57;;;-1.50;99.90;;;;;;5052989;28;20088;-79
2021/12/03 03:27:28;;;;;;;0.60;0.60;;;-1.50;99.90;;;;;;5054451;28;20080;-76
2021/12/03 03:29:57;;;;;;;3.03;1.83;;;-1.50;99.90;;;;;;5053783;28;20053;-76
2021/12/03 03:32:25;;;;;;;9.67;2.37;;;-1.50;99.90;;;;;;5055815;28;20084;-78
2021/12/03 03:34:52;;;;;;;2.17;1.57;;;-1.50;99.90;;;;;;5053165;28;20512;-76
2021/12/03 03:37:19;;;;;;;2.10;1.37;;;-1.60;99.90;;;;;;5052988;28;20045;-79
2021/12/03 03:39:46;;;;;;;6.13;2.20;;;-1.60;99.90;;;;;;5053223;28;20045;-78
2021/12/03 03:42:13;;;;;;;8.40;1.50;;;-1.60;99.90;;;;;;5053930;28;20044;-81
2021/12/03 03:44:40;;;;;;;5.33;1.83;;;-1.70;99.90;;;;;;5053662;28;20052;-77
2021/12/03 03:47:10;;;;;;;1.93;1.40;;;-1.70;99.90;;;;;;5052610;28;20099;-74
2021/12/03 03:49:37;;;;;;;2.70;1.97;;;-1.70;99.90;;;;;;5052292;28;20527;-76
2021/12/03 03:52:07;;;;;;;1.03;1.03;;;-1.70;99.90;;;;;;5052934;28;20051;-74
2021/12/03 03:54:35;;;;;;;12.70;1.47;;;-1.70;99.90;;;;;;5052311;28;20041;-77
2021/12/03 03:57:02;;;;;;;2.10;1.80;;;-1.70;99.90;;;;;;5054573;28;20103;-76
2021/12/03 03:59:29;;;;;;;1.73;1.37;;;-1.70;99.90;;;;;;5053387;28;20056;-76
2021/12/03 04:01:55;;;;;;;3.03;2.10;;;-1.70;99.90;;;;;;5053253;28;20049;-76
2021/12/03 04:04:25;;;;;;;1.53;1.37;;;-1.70;99.90;;;;;;5051875;28;20049;-77
2021/12/03 04:06:53;;;;;;;2.13;2.03;;;-1.70;99.90;;;;;;5053203;28;20385;-76
2021/12/03 04:09:20;;;;;;;1.33;1.20;;;-1.70;99.90;;;;;;5054779;28;20091;-78
2021/12/03 04:11:46;;;;;;;2.83;2.63;;;-1.60;99.90;;;;;;5056139;28;20053;-76
2021/12/03 04:14:13;;;;;;;2.43;1.83;;;-1.60;99.90;;;;;;5051540;28;20061;-73
2021/12/03 04:16:40;;;;;;;2.93;2.17;;;-1.60;99.90;;;;;;5051899;28;20094;-73
2021/12/03 04:19:07;;;;;;;1.87;1.20;;;-1.60;99.90;;;;;;5052089;28;20069;-73
2021/12/03 04:21:35;;;;;;;2.07;1.60;;;-1.60;99.90;;;;;;5052074;28;20455;-75
2021/12/03 04:24:02;;;;;;;3.90;1.83;;;-1.60;99.90;;;;;;5051346;28;20052;-75
2021/12/03 04:26:29;;;;;;;2.77;2.20;;;-1.60;99.90;;;;;;5052146;28;20500;-74
2021/12/03 04:28:56;;;;;;;3.00;2.13;;;-1.60;99.90;;;;;;5051906;28;20049;-75
2021/12/03 04:31:23;;;;;;;5.13;1.73;;;-1.60;99.90;;;;;;5051614;28;20048;-73
2021/12/03 04:33:49;;;;;;;2.13;1.50;;;-1.70;99.90;;;;;;5052669;28;20448;-75
2021/12/03 04:36:16;;;;;;;2.77;1.90;;;-1.60;99.90;;;;;;5051243;28;20056;-77
2021/12/03 04:38:48;;;;;;;1.90;1.73;;;-1.60;99.90;;;;;;5051985;28;20513;-74
2021/12/03 04:41:15;;;;;;;1.80;1.70;;;-1.60;99.90;;;;;;5051902;28;20095;-75
2021/12/03 04:43:42;;;;;;;6.20;1.77;;;-1.50;99.90;;;;;;5051737;28;20428;-75
2021/12/03 04:46:08;;;;;;;5.27;3.17;;;-1.50;99.90;;;;;;5051322;28;20103;-75
2021/12/03 04:48:35;;;;;;;3.80;1.87;;;-1.40;99.90;;;;;;5050830;28;20448;-73
2021/12/03 04:51:02;;;;;;;2.60;2.40;;;-1.40;99.90;;;;;;5051473;28;20472;-75
2021/12/03 04:53:29;;;;;;;1.33;1.17;;;-1.30;99.90;;;;;;5052343;28;20053;-79
2021/12/03 04:55:57;;;;;;;1.23;1.13;;;-1.30;99.90;;;;;;5052246;28;20045;-75
2021/12/03 04:58:23;;;;;;;8.53;2.40;;;-1.30;99.90;;;;;;5051643;28;20535;-78
2021/12/03 05:00:53;;;;;;;1.50;1.40;;;-1.30;99.90;;;;;;5051914;28;20052;-77
2021/12/03 05:03:23;;;;;;;7.03;1.17;;;-1.30;99.90;;;;;;5052436;28;20088;-77
2021/12/03 05:05:53;;;;;;;8.97;1.97;;;-1.30;99.90;;;;;;5051459;28;20393;-77
2021/12/03 05:08:20;;;;;;;1.97;1.73;;;-1.30;99.90;;;;;;5051437;28;20092;-72
2021/12/03 05:10:48;;;;;;;2.77;1.93;;;-1.30;99.90;;;;;;5051502;28;20048;-75
2021/12/03 05:13:18;;;;;;;3.87;2.07;;;-1.30;99.90;;;;;;5051531;28;20079;-73
2021/12/03 05:15:46;;;;;;;4.70;2.57;;;-1.40;99.90;;;;;;5051331;28;20071;-75
2021/12/03 05:18:30;;;;;;;1.43;1.33;;;-1.40;99.90;;;;;;5051665;28;20079;-77
2021/12/03 05:20:59;;;;;;;2.27;1.37;;;-1.40;99.90;;;;;;5051564;28;20075;-74
2021/12/03 05:23:27;;;;;;;2.50;1.73;;;-1.40;99.90;;;;;;5051294;28;20123;-72
2021/12/03 05:25:56;;;;;;;1.50;1.40;;;-1.40;99.90;;;;;;5050899;28;20041;-76
2021/12/03 05:28:28;;;;;;;2.87;2.67;;;-1.40;99.90;;;;;;5052218;28;20420;-76
2021/12/03 05:30:56;;;;;;;2.70;1.93;;;-1.40;99.90;;;;;;5051219;28;20147;-73
2021/12/03 05:33:25;;;;;;;2.17;1.97;;;-1.40;99.90;;;;;;5050859;28;20094;-76
2021/12/03 05:35:52;;;;;;;11.10;2.07;;;-1.50;99.90;;;;;;5051080;28;20098;-77
2021/12/03 05:38:19;;;;;;;1.47;1.10;;;-1.50;99.90;;;;;;5052826;28;20052;-75
2021/12/03 05:40:47;;;;;;;3.17;2.80;;;-1.40;99.90;;;;;;5051264;28;20064;-76
2021/12/03 05:43:13;;;;;;;1.53;1.33;;;-1.40;99.90;;;;;;5051156;28;20527;-79
2021/12/03 05:45:41;;;;;;;4.50;2.60;;;-1.50;99.90;;;;;;5051427;28;20045;-76
2021/12/03 05:48:08;;;;;;;2.20;2.07;;;-1.40;99.90;;;;;;5053202;28;20055;-78
2021/12/03 05:50:35;;;;;;;2.50;1.67;;;-1.50;99.90;;;;;;5051083;28;20052;-74
2021/12/03 05:53:02;;;;;;;2.37;1.67;;;-1.50;99.90;;;;;;5050955;28;20041;-77
2021/12/03 05:55:29;;;;;;;1.23;1.13;;;-1.40;99.90;;;;;;5050604;28;20053;-78
2021/12/03 05:57:56;;;;;;;1.70;1.20;;;-1.40;99.90;;;;;;5050973;28;20041;-73
2021/12/03 06:00:25;;;;;;;3.40;1.67;;;-1.40;99.90;;;;;;5052934;28;20041;-72
2021/12/03 06:02:54;;;;;;;2.30;2.00;;;-1.40;99.90;;;;;;5054494;28;20045;-71
2021/12/03 06:05:22;;;;;;;2.10;2.00;;;-1.40;99.90;;;;;;5054024;28;20048;-73
2021/12/03 06:07:48;;;;;;;2.83;1.70;;;-1.40;99.90;;;;;;5054466;28;20052;-71
2021/12/03 06:10:15;;;;;;;1.73;1.63;;;-1.30;99.90;;;;;;5054816;28;20122;-75
2021/12/03 06:12:42;;;;;;;5.83;2.10;;;-1.30;99.90;;;;;;5055989;28;20111;-78
2021/12/03 06:15:09;;;;;;;2.33;1.40;;;-1.30;99.90;;;;;;5055227;28;20083;-76
2021/12/03 06:17:36;;;;;;;1.53;0.93;;;-1.30;99.90;;;;;;5056401;28;20052;-75
2021/12/03 06:20:06;;;;;;;1.57;1.37;;;-1.30;99.90;;;;;;5056996;28;20505;-75
2021/12/03 06:22:33;;;;;;;1.60;1.00;;;-1.30;99.90;;;;;;5053797;28;20412;-72
2021/12/03 06:25:01;;;;;;;2.47;1.77;;;-1.40;99.90;;;;;;5053924;28;20048;-76
2021/12/03 06:27:29;;;;;;;1.70;1.37;;;-1.30;99.90;;;;;;5056364;28;20409;-76
2021/12/03 06:29:57;;;;;;;1.53;1.33;;;-1.30;99.90;;;;;;5056251;28;20033;-75
2021/12/03 06:32:23;;;;;;;0.57;0.33;;;-1.30;99.90;;;;;;5057347;28;20049;-77
2021/12/03 06:34:50;;;;;;;1.73;1.63;;;-1.30;99.90;;;;;;5054571;28;20041;-77
2021/12/03 06:37:18;;;;;;;4.30;1.77;;;-1.30;99.90;;;;;;5057786;28;20091;-77
2021/12/03 06:39:45;;;;;;;1.13;1.03;;;-1.20;99.90;;;;;;5059905;28;20459;-78
2021/12/03 06:42:11;;;;;;;1.70;1.23;;;-1.20;99.90;;;;;;5054733;28;20052;-77
2021/12/03 06:44:38;;;;;;;2.10;1.50;;;-1.20;99.90;;;;;;5058154;28;20048;-76
2021/12/03 06:47:05;;;;;;;2.17;1.87;;;-1.10;99.90;;;;;;5054799;28;20488;-79
2021/12/03 06:49:33;;;;;;;1.50;1.40;;;-1.10;99.90;;;;;;5055648;28;20456;-80
2021/12/03 06:52:03;;;;;;;1.37;1.23;;;-1.10;99.90;;;;;;5054330;28;20045;-74
2021/12/03 06:54:33;;;;;;;2.67;1.53;;;-1.20;99.90;;;;;;5052824;28;20079;-75
2021/12/03 06:57:02;;;;;;;2.77;2.00;;;-1.10;99.90;;;;;;5053741;28;20044;-73
2021/12/03 06:59:29;;;;;;;1.03;1.03;;;-1.10;99.90;;;;;;5053779;28;20103;-76
2021/12/03 07:01:56;;;;;;;1.23;1.13;;;-1.10;99.90;;;;;;5053548;28;20048;-74
2021/12/03 07:04:22;;;;;;;7.67;2.47;;;-1.00;99.90;;;;;;5053082;28;20049;-75
2021/12/03 07:06:49;;;;;;;1.37;1.13;;;-1.00;99.90;;;;;;5053036;28;20052;-73
2021/12/03 07:09:17;;;;;;;1.37;1.30;;;-1.00;99.90;;;;;;5053453;28;20048;-76
2021/12/03 07:11:45;;;;;;;1.27;0.87;;;-0.90;99.90;;;;;;5051925;28;20049;-72
2021/12/03 07:14:13;;;;;;;2.07;1.87;;;-0.90;99.90;;;;;;5054198;28;20045;-76
2021/12/03 07:16:40;;;;;;;1.30;1.20;;;-0.80;99.90;;;;;;5058564;28;20049;-74
2021/12/03 07:19:07;;;;;;;1.47;1.37;;;-0.70;99.90;;;;;;5057323;28;20413;-74
2021/12/03 07:21:34;;;;;;;2.13;1.70;;;-0.60;99.90;;;;;;5054481;28;20053;-72
2021/12/03 07:24:00;;;;;;;1.00;1.00;;;-0.50;99.90;;;;;;5059076;28;20091;-75
2021/12/03 07:26:28;;;;;;;2.87;1.43;;;-0.50;99.90;;;;;;5061679;28;20044;-73
2021/12/03 07:28:59;;;;;;;2.57;1.30;;;-0.40;99.90;;;;;;5063263;28;20049;-75
2021/12/03 07:31:27;;;;;;;2.53;1.75;;;-0.30;99.90;;;;;;5074640;28;20079;-75
2021/12/03 07:33:56;;;;;;;4.97;2.60;;;-0.20;99.90;;;;;;5073334;28;20033;-75
2021/12/03 07:36:24;;;;;;;3.73;2.40;;;0.00;99.90;;;;;;5069096;28;20052;-76
2021/12/03 07:38:50;;;;;;;0.77;0.77;;;0.20;99.90;;;;;;5056255;28;20088;-76
2021/12/03 07:41:19;;;;;;;2.43;1.70;;;0.50;99.90;;;;;;5054577;28;20049;-77
2021/12/03 07:43:46;;;;;;;1.80;1.00;;;0.80;99.90;;;;;;5052932;28;20056;-76
2021/12/03 07:46:18;;;;;;;2.20;2.00;;;0.80;99.90;;;;;;5052727;28;20070;-79
2021/12/03 07:48:49;;;;;;;2.45;1.85;;;0.90;99.90;;;;;;5052950;28;20055;-78
2021/12/03 07:51:16;;;;;;;2.40;1.85;;;0.80;99.90;;;;;;5052609;28;20056;-79
2021/12/03 07:53:43;;;;;;;2.43;1.43;;;0.90;99.90;;;;;;5052625;28;20052;-77
2021/12/03 07:56:09;;;;;;;2.70;2.47;;;1.10;99.90;;;;;;5052227;28;20049;-78
2021/12/03 07:58:37;;;;;;;1.60;1.43;;;1.30;99.90;;;;;;5053169;28;20041;-78
2021/12/03 08:01:04;;;;;;;3.53;2.17;;;1.50;99.90;;;;;;5052379;28;20057;-76
2021/12/03 08:03:32;;;;;;;4.93;3.50;;;1.90;99.90;;;;;;5052337;28;20041;-77
2021/12/03 08:06:05;;;;;;;3.70;1.40;;;2.10;99.90;;;;;;5051691;28;20103;-75
2021/12/03 08:08:31;;;;;;;2.03;1.90;;;2.40;99.90;;;;;;5052449;28;20044;-76
2021/12/03 08:10:58;;;;;;;3.07;1.77;;;2.70;99.90;;;;;;5052461;28;20053;-76
2021/12/03 08:13:25;;;;;;;2.43;1.77;;;2.70;99.90;;;;;;5052648;28;20559;-78
2021/12/03 08:15:51;;;;;;;3.77;1.63;;;2.40;99.90;;;;;;5053462;28;20048;-80
2021/12/03 08:18:18;;;;;;;1.80;1.70;;;2.20;99.90;;;;;;5054076;28;20045;-78
2021/12/03 08:20:46;;;;;;;10.50;2.03;;;1.90;99.90;;;;;;5054728;28;20045;-78
2021/12/03 08:23:13;;;;;;;2.03;1.83;;;2.20;99.90;;;;;;5054571;28;20044;-78
2021/12/03 08:25:40;;;;;;;1.73;1.63;;;2.40;99.90;;;;;;5054884;28;20075;-76
2021/12/03 08:28:07;;;;;;;1.40;1.30;;;2.60;99.90;;;;;;5053419;28;20055;-79
2021/12/03 08:30:35;;;;;;;5.03;2.67;;;2.30;99.90;;;;;;5054095;28;20432;-79
2021/12/03 08:33:02;;;;;;;3.47;2.23;;;2.20;99.90;;;;;;5053476;28;20448;-78
2021/12/03 08:35:28;;;;;;;1.53;1.43;;;1.90;99.90;;;;;;5054410;28;20452;-77
2021/12/03 08:37:57;;;;;;;3.73;2.23;;;1.80;99.90;;;;;;5053360;28;20479;-80
2021/12/03 08:40:25;;;;;;;3.80;1.80;;;1.80;99.90;;;;;;5055430;28;20075;-78
2021/12/03 08:42:52;;;;;;;2.47;1.97;;;1.80;99.90;;;;;;5054735;28;20049;-80
2021/12/03 08:45:20;;;;;;;1.63;1.27;;;1.60;99.90;;;;;;5053796;28;20444;-78
2021/12/03 08:47:50;;;;;;;1.80;1.60;;;1.60;99.90;;;;;;5055571;28;20053;-77
2021/12/03 08:50:26;;;;;;;3.87;1.80;;;1.70;99.90;;;;;;5054536;28;20055;-79
2021/12/03 08:53:09;;;;;;;7.20;2.87;;;1.70;99.90;;;;;;5054642;28;20044;-80
2021/12/03 08:55:39;;;;;;;1.87;1.63;;;1.70;99.90;;;;;;5054032;28;20110;-78
2021/12/03 08:58:06;;;;;;;7.07;1.83;;;1.70;99.90;;;;;;5052578;28;20045;-77
2021/12/03 09:00:36;;;;;;;1.67;1.53;;;1.80;99.90;;;;;;5052161;28;20497;-79
2021/12/03 09:03:02;;;;;;;3.93;2.57;;;1.80;99.90;;;;;;5052248;28;20080;-77
2021/12/03 09:05:30;;;;;;;4.50;1.80;;;1.70;99.90;;;;;;5052236;28;20110;-76
2021/12/03 09:07:57;;;;;;;2.50;1.90;;;1.70;99.90;;;;;;5052180;28;20044;-77
2021/12/03 09:10:24;;;;;;;3.87;1.87;;;1.80;99.90;;;;;;5052960;28;20412;-78
2021/12/03 09:12:53;;;;;;;1.77;1.33;;;1.90;99.90;;;;;;5052580;28;20056;-77
2021/12/03 09:15:25;;;;;;;2.20;1.50;;;2.00;99.90;;;;;;5052442;28;20053;-78
2021/12/03 09:18:06;;;;;;;3.37;2.73;;;2.20;99.90;;;;;;5052104;28;20071;-80
2021/12/03 09:20:44;;;;;;;2.23;1.97;;;2.60;99.90;;;;;;5052372;28;20516;-80
2021/12/03 09:23:15;;;;;;;19.83;9.07;;;3.00;99.90;;;;;;5054149;28;20045;-79
2021/12/03 09:25:48;;;;;;;6.57;3.92;;;3.90;99.90;;;;;;5054787;28;20045;-77
2021/12/03 09:28:16;;;;;;;3.17;1.80;;;4.50;99.90;;;;;;5051732;28;20137;-77
2021/12/03 09:30:44;;;;;;;5.77;2.43;;;4.80;99.90;;;;;;5051017;28;20049;-75
2021/12/03 09:33:13;;;;;;;3.43;2.30;;;4.80;99.90;;;;;;5051090;28;20051;-76
2021/12/03 09:35:44;;;;;;;3.67;2.20;;;4.60;99.90;;;;;;5053580;28;20045;-76
2021/12/03 09:38:11;;;;;;;6.07;3.47;;;4.40;99.90;;;;;;5055474;28;20045;-76
2021/12/03 09:40:39;;;;;;;1.40;1.30;;;4.80;99.90;;;;;;5055821;28;20045;-83
2021/12/03 09:43:07;;;;;;;4.00;2.00;;;4.70;99.90;;;;;;5055149;28;20045;-79
2021/12/03 09:45:36;;;;;;;5.00;3.07;;;5.10;99.90;;;;;;5054412;28;20055;-76
2021/12/03 09:48:12;;;;;;;2.40;1.37;;;5.00;99.90;;;;;;5056021;28;20080;-76
2021/12/03 09:50:39;;;;;;;2.07;1.63;;;6.20;99.90;;;;;;5054932;28;20057;-72
2021/12/03 09:53:18;;;;;;;2.83;2.20;;;7.10;99.90;;;;;;5055025;28;20095;-75
2021/12/03 09:55:45;;;;;;;1.80;1.70;;;6.70;99.90;;;;;;5057844;28;20058;-79
2021/12/03 09:58:22;;;;;;;1.70;1.20;;;7.80;99.90;;;;;;5058741;28;20049;-77
2021/12/03 10:00:54;;;;;;;3.20;1.47;;;9.20;99.90;;;;;;5055944;28;20045;-79
2021/12/03 10:03:41;;;;;;;2.10;1.23;;;9.70;96.10;;;;;;5054691;28;20098;-79
2021/12/03 10:14:45;;;;;;;1.47;1.20;;;8.90;94.10;;;;;;5053850;28;20119;-77
2021/12/03 10:17:36;;;;;;;3.23;2.03;;;8.30;96.40;;;;;;5054791;28;20270;-78
2021/12/03 10:20:15;;;;;;;3.17;1.77;;;8.70;96.10;;;;;;5054448;28;20049;-75
2021/12/03 10:28:40;;;;;;;2.40;1.80;;;8.80;94.80;;;;;;5054272;28;20049;-80
2021/12/03 10:31:50;;;;;;;3.27;1.60;;;9.70;89.90;;;;;;5055141;28;20045;-76
2021/12/03 10:34:37;;;;;;;1.30;1.20;;;10.20;90.20;;;;;;5053223;28;20052;-77
2021/12/03 10:39:58;;;;;;;2.80;1.30;;;10.10;88.10;;;;;;5051427;28;20472;-75
2021/12/03 10:42:47;;;;;;;3.47;1.10;;;10.80;84.00;;;;;;5053662;28;20041;-75
2021/12/03 10:45:24;;;;;;;2.65;1.40;;;11.50;79.20;;;;;;5052544;28;20056;-74
2021/12/03 10:53:31;;;;;;;1.52;1.35;;;11.40;75.60;;;;;;5051542;28;20140;-76
2021/12/03 10:59:04;;;;;;;7.20;1.97;;;11.50;77.40;;;;;;5053526;28;20045;-79
2021/12/03 11:04:46;;;;;;;3.28;1.98;;;10.40;76.30;;;;;;5052821;28;20123;-77
2021/12/03 11:14:13;;;;;;;1.70;1.60;;;11.60;76.50;;;;;;5010998;28;20147;-77
2021/12/03 11:26:08;;;;;;;3.03;1.60;;;11.60;73.40;;;;;;5052402;28;20049;-76
2021/12/03 11:46:02;;;;;;;2.47;2.22;;;9.70;88.40;;;;;;5052284;28;20055;-76
2021/12/03 12:01:17;;;;;;;3.65;1.80;;;9.40;88.10;;;;;;5052296;28;20045;-77
2021/12/03 12:24:28;;;;;;;3.70;2.05;;;6.60;99.90;;;;;;5051786;28;20120;-77
2021/12/03 13:01:32;;;;;;;4.17;2.30;;;3.50;99.90;;;;;;5055239;28;20041;-75
2021/12/03 13:16:01;;;;;;;2.73;1.90;;;3.30;99.90;;;;;;5055224;28;20052;-76
2021/12/03 13:33:06;;;;;;;2.47;2.20;;;2.70;99.90;;;;;;5053609;28;20059;-75
2021/12/03 14:04:00;;;;;;;5.93;3.70;;;2.30;99.90;;;;;;5055300;28;20053;-79
2021/12/03 14:40:18;;;;;;;7.68;4.10;;;2.00;99.90;;;;;;5054121;28;20405;-76
2021/12/03 14:42:56;;;;;;;6.53;4.90;;;1.90;99.90;;;;;;5054497;28;20056;-77
2021/12/03 14:45:40;;;;;;;5.97;4.33;;;1.90;99.90;;;;;;5053827;28;20048;-77
2021/12/03 14:48:27;;;;;;;5.30;4.13;;;1.90;99.90;;;;;;5054319;28;20538;-77
2021/12/03 14:57:09;;;;;;;8.60;4.87;;;1.80;99.90;;;;;;5054042;28;20056;-76
2021/12/03 14:59:39;;;;;;;6.43;4.13;;;1.80;99.90;;;;;;5054205;28;20053;-76
2021/12/03 15:02:15;;;;;;;9.17;5.23;;;1.90;99.90;;;;;;5054495;28;20041;-77
2021/12/03 15:05:01;;;;;;;7.80;5.60;;;1.90;99.90;;;;;;5053914;28;20412;-77
2021/12/03 15:07:33;;;;;;;10.77;6.30;;;1.80;99.90;;;;;;5055904;28;20447;-78
2021/12/03 15:10:02;;;;;;;5.85;5.35;;;1.90;99.90;;;;;;5054881;28;20481;-79
2021/12/03 15:21:12;;;;;;;7.40;3.93;;;1.90;99.90;;;;;;5054663;28;20049;-77
2021/12/03 15:26:35;;;;;;;9.40;2.90;;;1.90;99.90;;;;;;5041752;28;20053;-77
2021/12/03 15:29:31;;;;;;;8.13;4.93;;;1.90;99.90;;;;;;5055394;28;20052;-80
2021/12/03 15:32:05;;;;;;;9.73;4.83;;;1.90;99.90;;;;;;5053444;28;20053;-79
2021/12/03 15:34:49;;;;;;;4.63;3.40;;;1.90;99.90;;;;;;5054936;28;20140;-77
2021/12/03 15:37:36;;;;;;;11.20;5.13;;;1.90;99.90;;;;;;5061939;28;20053;-78
2021/12/03 15:56:46;;;;;;;3.83;3.30;;;1.90;99.90;;;;;;5041025;28;20084;-77
2021/12/03 16:04:43;;;;;;;3.67;3.37;;;1.90;99.90;;;;;;5054428;28;20064;-78
2021/12/03 16:07:22;;;;;;;5.43;3.13;;;1.90;99.90;;;;;;5053086;28;20045;-77
2021/12/03 16:10:03;;;;;;;4.03;3.63;;;2.00;99.90;;;;;;5053447;28;20060;-76
2021/12/03 16:12:45;;;;;;;6.47;4.32;;;2.00;99.90;;;;;;5053850;28;20052;-76
2021/12/03 16:15:24;;;;;;;4.78;2.88;;;2.00;99.90;;;;;;5052210;28;20080;-77
2021/12/03 16:18:15;;;;;;;3.37;1.97;;;2.00;99.90;;;;;;5053327;28;20094;-76
2021/12/03 16:21:07;;;;;;;4.90;3.17;;;2.00;99.90;;;;;;5053213;28;20259;-78
2021/12/03 16:23:48;;;;;;;3.17;2.60;;;2.00;99.90;;;;;;5053229;28;20143;-76
2021/12/03 16:26:30;;;;;;;8.82;3.40;;;2.10;99.90;;;;;;5051979;28;20045;-77
2021/12/03 16:45:47;;;;;;;2.37;2.20;;;2.00;99.90;;;;;;5051809;28;20051;-77
2021/12/03 16:48:55;;;;;;;4.07;2.57;;;2.00;99.90;;;;;;5052659;28;20052;-77
2021/12/03 16:51:29;;;;;;;4.70;3.00;;;2.00;99.90;;;;;;5051278;28;20041;-75
2021/12/03 16:54:00;;;;;;;4.33;2.47;;;2.00;99.90;;;;;;5051248;28;20055;-75
2021/12/03 16:56:28;;;;;;;2.55;2.35;;;2.00;99.90;;;;;;5051714;28;20296;-75
2021/12/03 16:58:58;;;;;;;3.00;2.70;;;1.90;99.90;;;;;;5051548;28;20385;-77
2021/12/03 17:01:31;;;;;;;3.20;1.80;;;1.90;99.90;;;;;;5051343;28;20056;-76
2021/12/03 17:04:05;;;;;;;2.33;2.13;;;1.90;99.90;;;;;;5051214;28;20055;-77
2021/12/03 17:09:22;;;;;;;2.60;2.40;;;1.90;99.90;;;;;;5051230;28;20053;-76
2021/12/03 17:12:15;;;;;;;3.63;2.80;;;2.00;99.90;;;;;;5051436;28;20048;-78
2021/12/03 17:14:59;;;;;;;4.63;3.10;;;2.00;99.90;;;;;;5050857;28;20057;-76
2021/12/03 17:29:07;;;;;;;8.77;2.37;;;2.10;99.90;;;;;;5051774;28;20049;-76
2021/12/03 17:48:27;;;;;;;5.70;2.87;;;2.10;99.90;;;;;;5051292;28;20055;-77
2021/12/03 17:51:09;;;;;;;2.53;2.17;;;2.20;99.90;;;;;;5051571;28;20049;-78
2021/12/03 17:56:24;;;;;;;5.07;2.77;;;2.20;99.90;;;;;;5050832;28;20057;-78
2021/12/03 17:58:53;;;;;;;6.40;3.47;;;2.10;99.90;;;;;;5055077;28;20053;-77
2021/12/03 18:01:24;;;;;;;3.10;2.17;;;2.10;99.90;;;;;;5054886;28;20049;-79
2021/12/03 18:04:02;;;;;;;5.57;3.93;;;2.10;99.90;;;;;;5054593;28;20057;-77
2021/12/03 18:09:36;;;;;;;3.20;2.33;;;2.10;99.90;;;;;;5048682;28;20049;-78
2021/12/03 18:12:38;;;;;;;3.57;2.83;;;2.10;99.90;;;;;;5054577;28;20045;-75
2021/12/03 18:45:26;;;;;;;6.17;2.87;;;1.80;99.90;;;;;;5053338;28;20051;-75
2021/12/03 18:51:06;;;;;;;9.67;4.10;;;1.80;99.90;;;;;;5055732;28;20075;-78